sensor_id;sensor_type;location;lat;lon;timestamp;P1;durP1;ratioP1;P2;durP2;ratioP2
22983;SDS011;11658;48.908;9.140;2023-03-05T06:01:59;12.53;;;6.93;;
22983;SDS011;11658;48.908;9.140;2023-03-05T06:04:25;12.50;;;7.07;;
22983;SDS011;11658;48.908;9.140;2023-03-05T06:06:51;12.40;;;7.10;;
22983;SDS011;11658;48.908;9.140;2023-03-05T06:09:17;16.47;;;7.53;;
22983;SDS011;11658;48.908;9.140;2023-03-05T06:11:42;14.33;;;7.37;;
22983;SDS011;11658;48.908;9.140;2023-03-05T06:14:08;12.50;;;7.00;;
22983;SDS011;11658;48.908;9.140;2023-03-05T06:16:35;12.80;;;6.93;;
22983;SDS011;11658;48.908;9.140;2023-03-05T06:19:00;13.23;;;7.33;;
22983;SDS011;11658;48.908;9.140;2023-03-05T06:21:28;14.23;;;8.10;;
22983;SDS011;11658;48.908;9.140;2023-03-05T06:23:54;14.93;;;7.47;;
22983;SDS011;11658;48.908;9.140;2023-03-05T06:26:20;14.40;;;7.07;;
22983;SDS011;11658;48.908;9.140;2023-03-05T06:28:46;11.40;;;6.93;;
22983;SDS011;11658;48.908;9.140;2023-03-05T06:31:14;12.30;;;7.00;;
22983;SDS011;11658;48.908;9.140;2023-03-05T06:33:42;15.10;;;7.87;;
22983;SDS011;11658;48.908;9.140;2023-03-05T06:36:09;14.03;;;7.03;;
22983;SDS011;11658;48.908;9.140;2023-03-05T06:38:37;12.10;;;6.90;;
22983;SDS011;11658;48.908;9.140;2023-03-05T06:41:03;14.33;;;7.00;;
22983;SDS011;11658;48.908;9.140;2023-03-05T06:43:31;12.60;;;6.93;;
22983;SDS011;11658;48.908;9.140;2023-03-05T06:46:00;16.27;;;7.43;;
22983;SDS011;11658;48.908;9.140;2023-03-05T06:48:37;12.67;;;6.57;;
22983;SDS011;11658;48.908;9.140;2023-03-05T06:51:03;12.57;;;6.73;;
22983;SDS011;11658;48.908;9.140;2023-03-05T06:53:29;12.63;;;6.60;;
22983;SDS011;11658;48.908;9.140;2023-03-05T06:55:55;14.03;;;7.30;;
22983;SDS011;11658;48.908;9.140;2023-03-05T06:58:20;14.47;;;7.00;;
22983;SDS011;11658;48.908;9.140;2023-03-05T07:00:46;11.00;;;6.93;;
22983;SDS011;11658;48.908;9.140;2023-03-05T07:03:12;16.20;;;7.77;;
22983;SDS011;11658;48.908;9.140;2023-03-05T07:05:39;12.87;;;7.17;;
22983;SDS011;11658;48.908;9.140;2023-03-05T07:08:05;12.00;;;6.93;;
22983;SDS011;11658;48.908;9.140;2023-03-05T07:10:32;13.40;;;7.70;;
22983;SDS011;11658;48.908;9.140;2023-03-05T07:13:03;15.10;;;7.50;;
22983;SDS011;11658;48.908;9.140;2023-03-05T07:15:28;12.00;;;6.73;;
22983;SDS011;11658;48.908;9.140;2023-03-05T07:17:54;13.33;;;7.13;;
22983;SDS011;11658;48.908;9.140;2023-03-05T07:20:20;16.90;;;7.10;;
22983;SDS011;11658;48.908;9.140;2023-03-05T07:22:46;12.03;;;7.10;;
22983;SDS011;11658;48.908;9.140;2023-03-05T07:25:11;10.90;;;6.53;;
22983;SDS011;11658;48.908;9.140;2023-03-05T07:27:37;14.83;;;7.73;;
22983;SDS011;11658;48.908;9.140;2023-03-05T07:30:03;14.97;;;7.60;;
22983;SDS011;11658;48.908;9.140;2023-03-05T07:32:29;15.03;;;7.87;;
22983;SDS011;11658;48.908;9.140;2023-03-05T07:34:55;13.47;;;6.77;;
22983;SDS011;11658;48.908;9.140;2023-03-05T07:37:21;16.27;;;7.37;;
22983;SDS011;11658;48.908;9.140;2023-03-05T07:39:46;11.23;;;6.57;;
22983;SDS011;11658;48.908;9.140;2023-03-05T07:42:12;12.70;;;7.40;;
22983;SDS011;11658;48.908;9.140;2023-03-05T07:44:38;14.77;;;7.40;;
22983;SDS011;11658;48.908;9.140;2023-03-05T07:47:03;12.27;;;6.97;;
22983;SDS011;11658;48.908;9.140;2023-03-05T07:49:29;13.63;;;7.30;;
22983;SDS011;11658;48.908;9.140;2023-03-05T07:51:55;14.57;;;7.30;;
22983;SDS011;11658;48.908;9.140;2023-03-05T07:54:20;13.07;;;7.13;;
22983;SDS011;11658;48.908;9.140;2023-03-05T07:56:46;15.03;;;6.97;;
22983;SDS011;11658;48.908;9.140;2023-03-05T07:59:12;13.27;;;7.53;;
22983;SDS011;11658;48.908;9.140;2023-03-05T08:01:38;13.83;;;7.13;;
22983;SDS011;11658;48.908;9.140;2023-03-05T08:04:04;13.37;;;7.83;;
22983;SDS011;11658;48.908;9.140;2023-03-05T08:06:31;14.90;;;7.70;;
22983;SDS011;11658;48.908;9.140;2023-03-05T08:08:57;14.73;;;7.23;;
22983;SDS011;11658;48.908;9.140;2023-03-05T08:11:23;13.87;;;7.60;;
22983;SDS011;11658;48.908;9.140;2023-03-05T08:13:49;14.53;;;7.60;;
22983;SDS011;11658;48.908;9.140;2023-03-05T08:16:16;17.20;;;8.10;;
22983;SDS011;11658;48.908;9.140;2023-03-05T08:18:44;13.83;;;7.10;;
22983;SDS011;11658;48.908;9.140;2023-03-05T08:21:20;13.70;;;7.43;;
22983;SDS011;11658;48.908;9.140;2023-03-05T08:23:50;16.40;;;7.07;;
22983;SDS011;11658;48.908;9.140;2023-03-05T08:26:17;12.83;;;6.80;;
22983;SDS011;11658;48.908;9.140;2023-03-05T08:28:45;13.53;;;7.43;;
22983;SDS011;11658;48.908;9.140;2023-03-05T08:31:11;17.67;;;8.13;;
22983;SDS011;11658;48.908;9.140;2023-03-05T08:33:38;15.20;;;7.67;;
22983;SDS011;11658;48.908;9.140;2023-03-05T08:36:04;15.50;;;7.80;;
22983;SDS011;11658;48.908;9.140;2023-03-05T08:38:30;13.43;;;7.60;;
22983;SDS011;11658;48.908;9.140;2023-03-05T08:40:56;15.90;;;7.90;;
22983;SDS011;11658;48.908;9.140;2023-03-05T08:43:21;15.83;;;7.33;;
22983;SDS011;11658;48.908;9.140;2023-03-05T08:45:47;16.37;;;8.23;;
22983;SDS011;11658;48.908;9.140;2023-03-05T08:48:13;17.40;;;7.70;;
22983;SDS011;11658;48.908;9.140;2023-03-05T08:50:39;14.23;;;8.23;;
22983;SDS011;11658;48.908;9.140;2023-03-05T08:53:05;16.83;;;7.53;;
22983;SDS011;11658;48.908;9.140;2023-03-05T08:55:30;12.60;;;7.50;;
22983;SDS011;11658;48.908;9.140;2023-03-05T08:57:56;18.90;;;8.67;;
22983;SDS011;11658;48.908;9.140;2023-03-05T09:00:22;16.63;;;7.80;;
22983;SDS011;11658;48.908;9.140;2023-03-05T09:02:47;16.97;;;7.97;;
22983;SDS011;11658;48.908;9.140;2023-03-05T09:05:13;15.90;;;8.13;;
22983;SDS011;11658;48.908;9.140;2023-03-05T09:07:39;16.87;;;8.77;;
22983;SDS011;11658;48.908;9.140;2023-03-05T09:10:05;14.30;;;8.30;;
22983;SDS011;11658;48.908;9.140;2023-03-05T09:12:31;15.57;;;7.70;;
22983;SDS011;11658;48.908;9.140;2023-03-05T09:14:57;15.10;;;8.03;;
22983;SDS011;11658;48.908;9.140;2023-03-05T09:17:22;13.83;;;8.43;;
22983;SDS011;11658;48.908;9.140;2023-03-05T09:19:48;15.20;;;8.23;;
22983;SDS011;11658;48.908;9.140;2023-03-05T09:22:14;16.70;;;9.60;;
22983;SDS011;11658;48.908;9.140;2023-03-05T09:24:40;16.87;;;8.77;;
22983;SDS011;11658;48.908;9.140;2023-03-05T09:27:06;16.77;;;8.57;;
22983;SDS011;11658;48.908;9.140;2023-03-05T09:29:31;15.37;;;8.27;;
22983;SDS011;11658;48.908;9.140;2023-03-05T09:31:57;17.83;;;9.13;;
22983;SDS011;11658;48.908;9.140;2023-03-05T09:34:22;14.40;;;8.10;;
22983;SDS011;11658;48.908;9.140;2023-03-05T09:36:48;15.47;;;8.10;;
22983;SDS011;11658;48.908;9.140;2023-03-05T09:39:14;18.03;;;8.57;;
22983;SDS011;11658;48.908;9.140;2023-03-05T09:47:02;15.33;;;8.73;;
22983;SDS011;11658;48.908;9.140;2023-03-05T09:49:50;14.20;;;8.17;;
22983;SDS011;11658;48.908;9.140;2023-03-05T09:52:58;15.70;;;8.83;;
22983;SDS011;11658;48.908;9.140;2023-03-05T09:55:37;14.20;;;8.47;;
22983;SDS011;11658;48.908;9.140;2023-03-05T10:00:39;15.17;;;8.00;;
22983;SDS011;11658;48.908;9.140;2023-03-05T10:03:27;13.23;;;8.37;;
22983;SDS011;11658;48.908;9.140;2023-03-05T10:08:54;14.33;;;9.07;;
22983;SDS011;11658;48.908;9.140;2023-03-05T10:11:29;13.27;;;8.23;;
22983;SDS011;11658;48.908;9.140;2023-03-05T10:14:02;15.57;;;8.43;;
22983;SDS011;11658;48.908;9.140;2023-03-05T10:27:01;20.70;;;9.73;;
22983;SDS011;11658;48.908;9.140;2023-03-05T10:29:42;19.33;;;9.67;;
22983;SDS011;11658;48.908;9.140;2023-03-05T10:35:05;17.23;;;9.10;;
22983;SDS011;11658;48.908;9.140;2023-03-05T10:40:20;16.13;;;9.03;;
22983;SDS011;11658;48.908;9.140;2023-03-05T10:43:26;13.60;;;8.60;;
22983;SDS011;11658;48.908;9.140;2023-03-05T10:46:03;15.10;;;9.40;;
22983;SDS011;11658;48.908;9.140;2023-03-05T10:48:36;14.97;;;8.90;;
22983;SDS011;11658;48.908;9.140;2023-03-05T10:53:57;15.60;;;9.37;;
22983;SDS011;11658;48.908;9.140;2023-03-05T10:56:28;14.17;;;8.67;;
22983;SDS011;11658;48.908;9.140;2023-03-05T10:58:55;13.77;;;8.83;;
22983;SDS011;11658;48.908;9.140;2023-03-05T11:01:23;13.77;;;9.03;;
22983;SDS011;11658;48.908;9.140;2023-03-05T11:04:05;13.50;;;8.63;;
22983;SDS011;11658;48.908;9.140;2023-03-05T11:06:40;13.77;;;8.17;;
22983;SDS011;11658;48.908;9.140;2023-03-05T11:14:32;13.37;;;7.83;;
22983;SDS011;11658;48.908;9.140;2023-03-05T11:16:59;12.87;;;8.83;;
22983;SDS011;11658;48.908;9.140;2023-03-05T11:22:07;11.73;;;7.93;;
22983;SDS011;11658;48.908;9.140;2023-03-05T11:24:43;14.37;;;9.00;;
22983;SDS011;11658;48.908;9.140;2023-03-05T11:27:31;13.93;;;9.50;;
22983;SDS011;11658;48.908;9.140;2023-03-05T11:30:02;17.83;;;10.40;;
22983;SDS011;11658;48.908;9.140;2023-03-05T11:32:42;16.97;;;9.87;;
22983;SDS011;11658;48.908;9.140;2023-03-05T11:35:20;16.53;;;12.00;;
22983;SDS011;11658;48.908;9.140;2023-03-05T11:37:58;12.17;;;8.73;;
22983;SDS011;11658;48.908;9.140;2023-03-05T11:40:28;12.70;;;8.67;;
22983;SDS011;11658;48.908;9.140;2023-03-05T11:42:56;12.23;;;9.17;;
22983;SDS011;11658;48.908;9.140;2023-03-05T11:45:24;17.17;;;9.63;;
22983;SDS011;11658;48.908;9.140;2023-03-05T11:47:52;14.13;;;8.80;;
22983;SDS011;11658;48.908;9.140;2023-03-05T11:50:23;14.83;;;9.13;;
22983;SDS011;11658;48.908;9.140;2023-03-05T11:52:50;11.80;;;8.33;;
22983;SDS011;11658;48.908;9.140;2023-03-05T11:55:19;15.90;;;8.83;;
22983;SDS011;11658;48.908;9.140;2023-03-05T12:00:48;13.17;;;7.87;;
22983;SDS011;11658;48.908;9.140;2023-03-05T12:03:16;15.27;;;8.60;;
22983;SDS011;11658;48.908;9.140;2023-03-05T12:05:50;14.70;;;7.63;;
22983;SDS011;11658;48.908;9.140;2023-03-05T12:08:23;15.27;;;8.23;;
22983;SDS011;11658;48.908;9.140;2023-03-05T12:10:53;16.50;;;8.30;;
22983;SDS011;11658;48.908;9.140;2023-03-05T12:13:27;12.93;;;7.87;;
22983;SDS011;11658;48.908;9.140;2023-03-05T12:16:15;13.67;;;8.60;;
22983;SDS011;11658;48.908;9.140;2023-03-05T12:18:51;13.80;;;7.83;;
22983;SDS011;11658;48.908;9.140;2023-03-05T12:21:24;13.33;;;8.17;;
22983;SDS011;11658;48.908;9.140;2023-03-05T12:23:59;10.77;;;7.60;;
22983;SDS011;11658;48.908;9.140;2023-03-05T12:27:12;11.30;;;7.57;;
22983;SDS011;11658;48.908;9.140;2023-03-05T12:40:18;12.33;;;8.17;;
22983;SDS011;11658;48.908;9.140;2023-03-05T12:52:55;12.00;;;8.00;;
22983;SDS011;11658;48.908;9.140;2023-03-05T12:55:34;11.33;;;7.83;;
22983;SDS011;11658;48.908;9.140;2023-03-05T12:58:16;12.00;;;7.73;;
22983;SDS011;11658;48.908;9.140;2023-03-05T13:00:44;12.20;;;7.73;;
22983;SDS011;11658;48.908;9.140;2023-03-05T13:03:17;12.53;;;7.47;;
22983;SDS011;11658;48.908;9.140;2023-03-05T13:05:52;11.83;;;6.97;;
22983;SDS011;11658;48.908;9.140;2023-03-05T13:08:27;11.10;;;7.57;;
22983;SDS011;11658;48.908;9.140;2023-03-05T13:11:00;12.30;;;7.20;;
22983;SDS011;11658;48.908;9.140;2023-03-05T13:13:27;14.30;;;7.40;;
22983;SDS011;11658;48.908;9.140;2023-03-05T13:15:55;10.70;;;7.33;;
22983;SDS011;11658;48.908;9.140;2023-03-05T13:18:24;9.27;;;6.73;;
22983;SDS011;11658;48.908;9.140;2023-03-05T13:21:04;11.50;;;7.50;;
22983;SDS011;11658;48.908;9.140;2023-03-05T13:23:32;9.17;;;6.47;;
22983;SDS011;11658;48.908;9.140;2023-03-05T13:26:12;9.03;;;6.37;;
22983;SDS011;11658;48.908;9.140;2023-03-05T13:28:42;10.73;;;7.07;;
22983;SDS011;11658;48.908;9.140;2023-03-05T13:31:28;8.20;;;6.10;;
22983;SDS011;11658;48.908;9.140;2023-03-05T13:33:55;9.07;;;6.47;;
22983;SDS011;11658;48.908;9.140;2023-03-05T13:36:24;9.10;;;6.63;;
22983;SDS011;11658;48.908;9.140;2023-03-05T13:38:51;10.47;;;7.33;;
22983;SDS011;11658;48.908;9.140;2023-03-05T13:41:18;10.33;;;6.90;;
22983;SDS011;11658;48.908;9.140;2023-03-05T13:49:24;16.93;;;9.30;;
22983;SDS011;11658;48.908;9.140;2023-03-05T13:51:55;17.53;;;10.63;;
22983;SDS011;11658;48.908;9.140;2023-03-05T13:54:23;13.53;;;8.67;;
22983;SDS011;11658;48.908;9.140;2023-03-05T13:56:52;11.47;;;7.73;;
22983;SDS011;11658;48.908;9.140;2023-03-05T13:59:21;10.07;;;8.07;;
22983;SDS011;11658;48.908;9.140;2023-03-05T14:01:48;11.57;;;7.00;;
22983;SDS011;11658;48.908;9.140;2023-03-05T14:04:25;12.10;;;7.23;;
22983;SDS011;11658;48.908;9.140;2023-03-05T14:09:44;10.60;;;7.33;;
22983;SDS011;11658;48.908;9.140;2023-03-05T14:14:58;17.07;;;11.00;;
22983;SDS011;11658;48.908;9.140;2023-03-05T14:22:42;10.47;;;7.03;;
22983;SDS011;11658;48.908;9.140;2023-03-05T14:28:03;9.57;;;6.63;;
22983;SDS011;11658;48.908;9.140;2023-03-05T14:30:49;11.10;;;7.97;;
22983;SDS011;11658;48.908;9.140;2023-03-05T14:33:20;12.00;;;7.10;;
22983;SDS011;11658;48.908;9.140;2023-03-05T14:35:48;12.77;;;7.00;;
22983;SDS011;11658;48.908;9.140;2023-03-05T14:38:23;11.00;;;7.03;;
22983;SDS011;11658;48.908;9.140;2023-03-05T14:41:17;13.07;;;6.83;;
22983;SDS011;11658;48.908;9.140;2023-03-05T14:44:14;13.70;;;7.27;;
22983;SDS011;11658;48.908;9.140;2023-03-05T14:46:41;9.60;;;6.87;;
22983;SDS011;11658;48.908;9.140;2023-03-05T14:49:11;12.33;;;8.63;;
22983;SDS011;11658;48.908;9.140;2023-03-05T14:51:38;19.37;;;11.33;;
22983;SDS011;11658;48.908;9.140;2023-03-05T14:54:14;10.57;;;7.27;;
22983;SDS011;11658;48.908;9.140;2023-03-05T14:56:45;12.57;;;8.20;;
22983;SDS011;11658;48.908;9.140;2023-03-05T14:59:11;12.53;;;8.17;;
22983;SDS011;11658;48.908;9.140;2023-03-05T15:01:37;11.03;;;6.83;;
22983;SDS011;11658;48.908;9.140;2023-03-05T15:04:03;9.77;;;6.73;;
22983;SDS011;11658;48.908;9.140;2023-03-05T15:08:57;11.30;;;6.63;;
22983;SDS011;11658;48.908;9.140;2023-03-05T15:11:23;12.00;;;7.30;;
22983;SDS011;11658;48.908;9.140;2023-03-05T15:13:49;9.47;;;6.57;;
22983;SDS011;11658;48.908;9.140;2023-03-05T15:16:14;8.37;;;5.80;;
22983;SDS011;11658;48.908;9.140;2023-03-05T15:18:42;10.80;;;6.63;;
22983;SDS011;11658;48.908;9.140;2023-03-05T15:21:07;9.07;;;6.83;;
22983;SDS011;11658;48.908;9.140;2023-03-05T15:23:33;9.43;;;6.80;;
22983;SDS011;11658;48.908;9.140;2023-03-05T15:26:02;13.27;;;7.57;;
22983;SDS011;11658;48.908;9.140;2023-03-05T15:28:31;10.77;;;7.40;;
22983;SDS011;11658;48.908;9.140;2023-03-05T15:30:59;11.80;;;6.50;;
22983;SDS011;11658;48.908;9.140;2023-03-05T15:33:25;12.83;;;7.83;;
22983;SDS011;11658;48.908;9.140;2023-03-05T15:35:51;12.33;;;7.13;;
22983;SDS011;11658;48.908;9.140;2023-03-05T15:38:17;10.23;;;6.57;;
22983;SDS011;11658;48.908;9.140;2023-03-05T15:40:43;11.17;;;7.20;;
22983;SDS011;11658;48.908;9.140;2023-03-05T15:43:09;11.67;;;6.90;;
22983;SDS011;11658;48.908;9.140;2023-03-05T15:45:35;11.73;;;6.73;;
22983;SDS011;11658;48.908;9.140;2023-03-05T15:48:01;9.23;;;6.40;;
22983;SDS011;11658;48.908;9.140;2023-03-05T15:50:27;11.50;;;6.43;;
22983;SDS011;11658;48.908;9.140;2023-03-05T15:52:52;9.93;;;6.27;;
22983;SDS011;11658;48.908;9.140;2023-03-05T15:55:18;10.33;;;6.90;;
22983;SDS011;11658;48.908;9.140;2023-03-05T15:57:45;9.37;;;6.23;;
22983;SDS011;11658;48.908;9.140;2023-03-05T16:00:13;10.67;;;6.97;;
22983;SDS011;11658;48.908;9.140;2023-03-05T16:02:40;9.70;;;6.30;;
22983;SDS011;11658;48.908;9.140;2023-03-05T16:05:06;12.03;;;7.03;;
22983;SDS011;11658;48.908;9.140;2023-03-05T16:07:32;11.40;;;7.37;;
22983;SDS011;11658;48.908;9.140;2023-03-05T16:10:00;13.70;;;7.50;;
22983;SDS011;11658;48.908;9.140;2023-03-05T16:12:29;13.70;;;7.90;;
22983;SDS011;11658;48.908;9.140;2023-03-05T16:15:04;12.77;;;7.93;;
22983;SDS011;11658;48.908;9.140;2023-03-05T16:17:38;10.30;;;7.00;;
22983;SDS011;11658;48.908;9.140;2023-03-05T16:20:05;13.13;;;7.67;;
22983;SDS011;11658;48.908;9.140;2023-03-05T16:22:31;11.57;;;7.77;;
22983;SDS011;11658;48.908;9.140;2023-03-05T16:24:57;12.43;;;7.70;;
22983;SDS011;11658;48.908;9.140;2023-03-05T16:27:25;14.10;;;8.27;;
22983;SDS011;11658;48.908;9.140;2023-03-05T16:29:51;13.37;;;8.73;;
22983;SDS011;11658;48.908;9.140;2023-03-05T16:32:16;12.57;;;8.17;;
22983;SDS011;11658;48.908;9.140;2023-03-05T16:34:42;18.80;;;9.90;;
22983;SDS011;11658;48.908;9.140;2023-03-05T16:37:08;13.50;;;9.27;;
22983;SDS011;11658;48.908;9.140;2023-03-05T16:39:33;15.00;;;9.17;;
22983;SDS011;11658;48.908;9.140;2023-03-05T16:41:59;15.60;;;9.40;;
22983;SDS011;11658;48.908;9.140;2023-03-05T16:44:25;14.70;;;8.80;;
22983;SDS011;11658;48.908;9.140;2023-03-05T16:46:50;13.60;;;8.57;;
22983;SDS011;11658;48.908;9.140;2023-03-05T16:49:20;13.93;;;8.60;;
22983;SDS011;11658;48.908;9.140;2023-03-05T16:51:46;17.47;;;9.63;;
22983;SDS011;11658;48.908;9.140;2023-03-05T16:54:12;14.70;;;9.50;;
22983;SDS011;11658;48.908;9.140;2023-03-05T16:56:37;14.33;;;8.90;;
22983;SDS011;11658;48.908;9.140;2023-03-05T16:59:03;13.77;;;8.90;;
22983;SDS011;11658;48.908;9.140;2023-03-05T17:01:29;15.13;;;8.90;;
22983;SDS011;11658;48.908;9.140;2023-03-05T17:03:56;14.20;;;9.47;;
22983;SDS011;11658;48.908;9.140;2023-03-05T17:06:23;15.50;;;9.50;;
22983;SDS011;11658;48.908;9.140;2023-03-05T17:08:51;14.60;;;9.70;;
22983;SDS011;11658;48.908;9.140;2023-03-05T17:11:17;16.17;;;9.50;;
22983;SDS011;11658;48.908;9.140;2023-03-05T17:13:44;16.37;;;10.47;;
22983;SDS011;11658;48.908;9.140;2023-03-05T17:16:10;19.00;;;11.83;;
22983;SDS011;11658;48.908;9.140;2023-03-05T17:18:38;14.73;;;9.53;;
22983;SDS011;11658;48.908;9.140;2023-03-05T17:21:04;15.17;;;8.80;;
22983;SDS011;11658;48.908;9.140;2023-03-05T17:23:31;17.40;;;8.60;;
22983;SDS011;11658;48.908;9.140;2023-03-05T17:25:57;12.93;;;8.67;;
22983;SDS011;11658;48.908;9.140;2023-03-05T17:28:23;14.40;;;8.67;;
22983;SDS011;11658;48.908;9.140;2023-03-05T17:30:49;12.87;;;8.17;;
22983;SDS011;11658;48.908;9.140;2023-03-05T17:33:15;10.50;;;7.73;;
22983;SDS011;11658;48.908;9.140;2023-03-05T17:35:43;12.33;;;8.17;;
22983;SDS011;11658;48.908;9.140;2023-03-05T17:38:12;14.70;;;8.87;;
22983;SDS011;11658;48.908;9.140;2023-03-05T17:40:38;13.20;;;8.63;;
22983;SDS011;11658;48.908;9.140;2023-03-05T17:43:04;14.07;;;9.03;;
22983;SDS011;11658;48.908;9.140;2023-03-05T17:45:29;13.13;;;8.63;;
22983;SDS011;11658;48.908;9.140;2023-03-05T17:47:55;13.60;;;8.87;;
22983;SDS011;11658;48.908;9.140;2023-03-05T17:50:21;10.90;;;8.20;;
22983;SDS011;11658;48.908;9.140;2023-03-05T17:52:46;15.37;;;9.30;;
22983;SDS011;11658;48.908;9.140;2023-03-05T17:55:12;14.27;;;9.23;;
22983;SDS011;11658;48.908;9.140;2023-03-05T17:57:40;17.53;;;10.33;;
22983;SDS011;11658;48.908;9.140;2023-03-05T18:00:16;16.83;;;10.60;;
22983;SDS011;11658;48.908;9.140;2023-03-05T18:02:47;16.30;;;9.43;;
22983;SDS011;11658;48.908;9.140;2023-03-05T18:05:13;13.97;;;9.40;;
22983;SDS011;11658;48.908;9.140;2023-03-05T18:07:39;14.67;;;9.73;;
22983;SDS011;11658;48.908;9.140;2023-03-05T18:10:05;17.67;;;10.90;;
22983;SDS011;11658;48.908;9.140;2023-03-05T18:12:32;14.90;;;9.63;;
22983;SDS011;11658;48.908;9.140;2023-03-05T18:14:58;14.53;;;9.93;;
22983;SDS011;11658;48.908;9.140;2023-03-05T18:17:24;14.13;;;10.13;;
22983;SDS011;11658;48.908;9.140;2023-03-05T18:19:50;15.07;;;9.77;;
22983;SDS011;11658;48.908;9.140;2023-03-05T18:22:16;15.00;;;9.90;;
22983;SDS011;11658;48.908;9.140;2023-03-05T18:24:41;15.50;;;9.63;;
22983;SDS011;11658;48.908;9.140;2023-03-05T18:27:07;13.40;;;9.37;;
22983;SDS011;11658;48.908;9.140;2023-03-05T18:29:33;15.90;;;9.93;;
22983;SDS011;11658;48.908;9.140;2023-03-05T18:31:59;13.73;;;10.07;;
22983;SDS011;11658;48.908;9.140;2023-03-05T18:34:25;14.90;;;9.23;;
22983;SDS011;11658;48.908;9.140;2023-03-05T18:36:51;13.17;;;9.50;;
22983;SDS011;11658;48.908;9.140;2023-03-05T18:39:17;14.00;;;8.93;;
22983;SDS011;11658;48.908;9.140;2023-03-05T18:41:44;12.97;;;8.43;;
22983;SDS011;11658;48.908;9.140;2023-03-05T18:44:11;15.67;;;8.40;;
22983;SDS011;11658;48.908;9.140;2023-03-05T18:46:37;13.83;;;8.67;;
22983;SDS011;11658;48.908;9.140;2023-03-05T18:49:04;14.23;;;8.93;;
22983;SDS011;11658;48.908;9.140;2023-03-05T18:51:29;13.33;;;8.97;;
22983;SDS011;11658;48.908;9.140;2023-03-05T18:53:56;12.63;;;8.60;;
22983;SDS011;11658;48.908;9.140;2023-03-05T18:56:22;15.33;;;9.80;;
22983;SDS011;11658;48.908;9.140;2023-03-05T18:58:48;12.80;;;9.03;;
22983;SDS011;11658;48.908;9.140;2023-03-05T19:01:14;12.67;;;8.73;;
22983;SDS011;11658;48.908;9.140;2023-03-05T19:03:41;13.33;;;9.10;;
22983;SDS011;11658;48.908;9.140;2023-03-05T19:06:08;13.00;;;9.37;;
22983;SDS011;11658;48.908;9.140;2023-03-05T19:08:33;16.20;;;10.00;;
22983;SDS011;11658;48.908;9.140;2023-03-05T19:10:59;13.07;;;9.20;;
22983;SDS011;11658;48.908;9.140;2023-03-05T19:13:27;14.97;;;9.50;;
22983;SDS011;11658;48.908;9.140;2023-03-05T19:18:48;15.03;;;9.87;;
22983;SDS011;11658;48.908;9.140;2023-03-05T19:21:37;13.50;;;10.07;;
22983;SDS011;11658;48.908;9.140;2023-03-05T19:24:02;16.50;;;10.53;;
22983;SDS011;11658;48.908;9.140;2023-03-05T19:26:28;17.13;;;11.33;;
22983;SDS011;11658;48.908;9.140;2023-03-05T19:28:54;21.50;;;12.47;;
22983;SDS011;11658;48.908;9.140;2023-03-05T19:31:19;19.73;;;12.00;;
22983;SDS011;11658;48.908;9.140;2023-03-05T19:33:45;18.13;;;12.83;;
22983;SDS011;11658;48.908;9.140;2023-03-05T19:36:11;17.93;;;12.53;;
22983;SDS011;11658;48.908;9.140;2023-03-05T19:38:37;19.10;;;12.33;;
22983;SDS011;11658;48.908;9.140;2023-03-05T19:41:03;18.23;;;13.00;;
22983;SDS011;11658;48.908;9.140;2023-03-05T19:43:30;23.03;;;13.07;;
22983;SDS011;11658;48.908;9.140;2023-03-05T19:45:59;19.90;;;12.73;;
22983;SDS011;11658;48.908;9.140;2023-03-05T19:48:26;23.67;;;13.87;;
22983;SDS011;11658;48.908;9.140;2023-03-05T19:50:52;18.93;;;12.47;;
22983;SDS011;11658;48.908;9.140;2023-03-05T19:53:18;19.57;;;12.77;;
22983;SDS011;11658;48.908;9.140;2023-03-05T19:55:43;19.67;;;12.87;;
22983;SDS011;11658;48.908;9.140;2023-03-05T19:58:09;23.03;;;13.30;;
22983;SDS011;11658;48.908;9.140;2023-03-05T20:00:34;21.40;;;13.03;;
22983;SDS011;11658;48.908;9.140;2023-03-05T20:03:00;24.30;;;13.50;;
22983;SDS011;11658;48.908;9.140;2023-03-05T20:05:26;21.90;;;13.17;;
22983;SDS011;11658;48.908;9.140;2023-03-05T20:07:52;19.17;;;13.23;;
22983;SDS011;11658;48.908;9.140;2023-03-05T20:10:18;19.43;;;12.43;;
22983;SDS011;11658;48.908;9.140;2023-03-05T20:12:44;17.93;;;12.60;;
22983;SDS011;11658;48.908;9.140;2023-03-05T20:15:12;20.83;;;12.90;;
22983;SDS011;11658;48.908;9.140;2023-03-05T20:17:38;19.63;;;12.73;;
22983;SDS011;11658;48.908;9.140;2023-03-05T20:20:04;19.47;;;12.43;;
22983;SDS011;11658;48.908;9.140;2023-03-05T20:22:31;20.17;;;12.43;;
22983;SDS011;11658;48.908;9.140;2023-03-05T20:24:56;22.23;;;13.23;;
22983;SDS011;11658;48.908;9.140;2023-03-05T20:27:23;16.07;;;11.43;;
22983;SDS011;11658;48.908;9.140;2023-03-05T20:29:48;16.77;;;11.83;;
22983;SDS011;11658;48.908;9.140;2023-03-05T20:32:14;18.90;;;11.80;;
22983;SDS011;11658;48.908;9.140;2023-03-05T20:34:39;19.03;;;11.33;;
22983;SDS011;11658;48.908;9.140;2023-03-05T20:37:05;18.63;;;12.33;;
22983;SDS011;11658;48.908;9.140;2023-03-05T20:39:31;19.63;;;12.20;;
22983;SDS011;11658;48.908;9.140;2023-03-05T20:41:57;19.87;;;11.90;;
22983;SDS011;11658;48.908;9.140;2023-03-05T20:44:22;19.57;;;11.97;;
22983;SDS011;11658;48.908;9.140;2023-03-05T20:46:48;18.77;;;11.43;;
22983;SDS011;11658;48.908;9.140;2023-03-05T20:49:23;18.67;;;11.90;;
22983;SDS011;11658;48.908;9.140;2023-03-05T20:51:49;19.77;;;11.50;;
22983;SDS011;11658;48.908;9.140;2023-03-05T20:54:15;16.03;;;10.20;;
22983;SDS011;11658;48.908;9.140;2023-03-05T20:56:40;15.37;;;10.67;;
22983;SDS011;11658;48.908;9.140;2023-03-05T20:59:06;19.90;;;11.73;;
22983;SDS011;11658;48.908;9.140;2023-03-05T21:01:33;15.53;;;10.77;;
22983;SDS011;11658;48.908;9.140;2023-03-05T21:04:00;15.50;;;10.20;;
22983;SDS011;11658;48.908;9.140;2023-03-05T21:06:27;17.37;;;10.67;;
22983;SDS011;11658;48.908;9.140;2023-03-05T21:08:54;15.97;;;10.67;;
22983;SDS011;11658;48.908;9.140;2023-03-05T21:11:20;16.13;;;10.77;;
22983;SDS011;11658;48.908;9.140;2023-03-05T21:13:46;16.77;;;10.30;;
22983;SDS011;11658;48.908;9.140;2023-03-05T21:16:13;15.77;;;9.70;;
22983;SDS011;11658;48.908;9.140;2023-03-05T21:18:40;15.87;;;10.07;;
22983;SDS011;11658;48.908;9.140;2023-03-05T21:21:06;15.87;;;9.33;;
22983;SDS011;11658;48.908;9.140;2023-03-05T21:23:32;15.73;;;10.23;;
22983;SDS011;11658;48.908;9.140;2023-03-05T21:25:58;15.83;;;10.57;;
22983;SDS011;11658;48.908;9.140;2023-03-05T21:28:25;15.43;;;9.87;;
22983;SDS011;11658;48.908;9.140;2023-03-05T21:30:52;15.20;;;10.13;;
22983;SDS011;11658;48.908;9.140;2023-03-05T21:33:21;17.40;;;10.97;;
22983;SDS011;11658;48.908;9.140;2023-03-05T21:35:49;17.20;;;12.00;;
22983;SDS011;11658;48.908;9.140;2023-03-05T21:38:19;18.00;;;10.77;;
22983;SDS011;11658;48.908;9.140;2023-03-05T21:40:49;18.90;;;11.13;;
22983;SDS011;11658;48.908;9.140;2023-03-05T21:43:16;23.20;;;12.63;;
22983;SDS011;11658;48.908;9.140;2023-03-05T21:45:44;21.37;;;12.53;;
22983;SDS011;11658;48.908;9.140;2023-03-05T21:48:13;25.30;;;15.43;;
22983;SDS011;11658;48.908;9.140;2023-03-05T21:50:40;23.33;;;15.03;;
22983;SDS011;11658;48.908;9.140;2023-03-05T21:53:07;20.83;;;13.90;;
22983;SDS011;11658;48.908;9.140;2023-03-05T21:55:32;18.27;;;11.73;;
22983;SDS011;11658;48.908;9.140;2023-03-05T21:58:09;16.13;;;11.03;;
